Time;durP1;ratioP1;P1;durP2;ratioP2;P2;SDS_P1;SDS_P2;PMS_P1;PMS_P2;Temp;Humidity;BMP_temperature;BMP_pressure;BME280_temperature;BME280_humidity;BME280_pressure;Samples;Min_cycle;Max_cycle;Signal;HPM_P1;HPM_P2
2022/06/06 00:00:49;;;;;;;14.32;12.52;;;15.50;99.90;;;;;;5031639;28;20087;-60
2022/06/06 00:03:17;;;;;;;14.93;13.38;;;15.70;99.90;;;;;;5035375;28;20037;-60
2022/06/06 00:05:45;;;;;;;17.15;14.23;;;15.80;99.90;;;;;;5035442;28;20474;-61
2022/06/06 00:08:11;;;;;;;14.35;12.80;;;15.40;99.90;;;;;;5033939;28;20030;-60
2022/06/06 00:10:42;;;;;;;14.70;13.02;;;15.50;99.90;;;;;;5037115;28;20083;-60
2022/06/06 00:13:11;;;;;;;20.27;15.48;;;15.60;99.90;;;;;;5040201;28;20037;-60
2022/06/06 00:15:37;;;;;;;14.43;13.02;;;15.50;99.90;;;;;;5037103;28;20045;-60
2022/06/06 00:18:03;;;;;;;16.40;14.70;;;15.80;99.90;;;;;;5040260;28;20068;-60
2022/06/06 00:20:30;;;;;;;16.08;13.75;;;15.80;99.90;;;;;;5036125;28;20046;-61
2022/06/06 00:22:57;;;;;;;14.88;13.35;;;15.70;99.90;;;;;;5035246;28;20407;-61
2022/06/06 00:25:23;;;;;;;15.77;13.85;;;15.90;99.90;;;;;;5036881;28;20033;-60
2022/06/06 00:27:49;;;;;;;15.85;14.15;;;15.90;99.90;;;;;;5042058;28;20123;-60
2022/06/06 00:30:15;;;;;;;17.92;15.05;;;15.60;99.90;;;;;;5035521;28;20567;-60
2022/06/06 00:35:25;;;;;;;16.63;14.95;;;15.60;99.90;;;;;;5019807;28;20041;-60
2022/06/06 00:37:51;;;;;;;17.08;15.27;;;15.70;99.90;;;;;;5039040;28;20501;-60
2022/06/06 00:40:20;;;;;;;16.95;15.15;;;15.90;99.90;;;;;;5032163;28;20033;-60
2022/06/06 00:42:46;;;;;;;15.15;13.55;;;15.90;99.90;;;;;;5036385;28;20077;-60
2022/06/06 00:45:21;;;;;;;15.98;14.38;;;15.60;99.90;;;;;;5049393;28;21413;-60
2022/06/06 00:48:06;;;;;;;18.13;15.25;;;15.70;99.90;;;;;;5037297;28;20124;-60
2022/06/06 00:50:56;;;;;;;16.27;14.65;;;15.70;99.90;;;;;;5033615;28;20399;-60
2022/06/06 00:53:44;;;;;;;16.52;14.82;;;16.00;99.90;;;;;;5036639;28;20053;-60
2022/06/06 00:56:13;;;;;;;17.35;15.73;;;16.00;99.90;;;;;;5041022;28;20635;-64
2022/06/06 00:58:40;;;;;;;17.77;15.88;;;15.60;99.90;;;;;;5039470;28;20056;-60
2022/06/06 01:01:07;;;;;;;19.35;17.30;;;16.00;99.90;;;;;;5038260;28;20074;-60
2022/06/06 01:03:37;;;;;;;20.65;18.27;;;15.80;99.90;;;;;;5015635;28;20049;-60
2022/06/06 01:06:04;;;;;;;23.58;20.98;;;15.60;99.90;;;;;;5030969;28;20041;-61
2022/06/06 01:08:31;;;;;;;24.60;22.00;;;15.50;99.90;;;;;;5029954;28;20041;-61
2022/06/06 01:10:56;;;;;;;26.65;22.65;;;15.60;99.90;;;;;;5031502;28;20041;-60
2022/06/06 01:13:23;;;;;;;28.40;24.27;;;15.90;99.90;;;;;;5040017;28;20383;-60
2022/06/06 01:16:18;;;;;;;33.25;26.75;;;15.60;99.90;;;;;;5039931;28;20045;-61
2022/06/06 01:18:47;;;;;;;28.75;24.92;;;15.90;99.90;;;;;;5043588;28;20057;-61
2022/06/06 01:21:46;;;;;;;31.08;26.17;;;15.80;99.90;;;;;;5040244;28;20080;-61
2022/06/06 01:24:39;;;;;;;34.95;29.55;;;15.60;99.90;;;;;;5037972;28;20518;-61
2022/06/06 01:27:46;;;;;;;29.87;25.73;;;15.50;99.90;;;;;;5042437;28;20079;-61
2022/06/06 01:30:16;;;;;;;31.27;26.58;;;15.70;99.90;;;;;;5009966;28;20450;-60
2022/06/06 01:32:46;;;;;;;30.80;27.48;;;15.80;99.90;;;;;;5021021;28;20116;-60
2022/06/06 01:35:25;;;;;;;28.95;23.73;;;15.90;99.90;;;;;;5038631;28;20049;-60
2022/06/06 01:37:51;;;;;;;28.10;24.65;;;15.40;99.90;;;;;;5038728;28;20052;-61
2022/06/06 01:40:18;;;;;;;26.00;23.08;;;15.30;99.90;;;;;;5042479;28;20037;-61
2022/06/06 01:42:50;;;;;;;27.63;24.05;;;15.30;99.90;;;;;;5030490;28;20107;-61
2022/06/06 01:45:19;;;;;;;22.02;19.65;;;15.50;99.90;;;;;;5041897;28;20051;-61
2022/06/06 01:47:52;;;;;;;26.58;22.38;;;15.60;99.90;;;;;;5031427;28;20495;-61
2022/06/06 01:50:20;;;;;;;27.13;20.92;;;15.20;99.90;;;;;;5038724;28;20495;-61
2022/06/06 01:52:57;;;;;;;25.05;21.15;;;15.20;99.90;;;;;;5044682;28;20048;-61
2022/06/06 01:55:25;;;;;;;26.77;21.45;;;15.20;99.90;;;;;;5046814;28;20076;-61
2022/06/06 01:57:53;;;;;;;24.05;20.67;;;15.10;99.90;;;;;;5033387;28;20499;-61
2022/06/06 02:00:20;;;;;;;23.42;20.15;;;15.40;99.90;;;;;;5040025;28;20029;-61
2022/06/06 02:02:45;;;;;;;28.05;22.20;;;15.40;99.90;;;;;;5040583;28;20100;-61
2022/06/06 02:05:13;;;;;;;31.48;24.20;;;15.40;99.90;;;;;;5041144;28;20057;-61
2022/06/06 02:07:40;;;;;;;29.50;23.20;;;15.10;99.90;;;;;;5034889;28;20160;-61
2022/06/06 02:10:11;;;;;;;20.50;18.10;;;15.20;99.90;;;;;;5035160;28;20555;-61
2022/06/06 02:12:38;;;;;;;25.80;20.50;;;15.30;99.90;;;;;;5036828;28;20033;-61
2022/06/06 02:15:05;;;;;;;35.85;23.42;;;14.90;99.90;;;;;;5040172;28;20135;-62
2022/06/06 02:17:32;;;;;;;29.45;22.40;;;15.20;99.90;;;;;;5033927;28;20487;-61
2022/06/06 02:19:57;;;;;;;27.80;20.80;;;14.90;99.90;;;;;;5034614;28;20136;-62
2022/06/06 02:22:23;;;;;;;34.70;22.73;;;15.20;99.90;;;;;;5039806;28;20522;-62
2022/06/06 02:24:49;;;;;;;25.85;19.85;;;15.10;99.90;;;;;;5021649;28;20054;-61
2022/06/06 02:27:15;;;;;;;18.98;15.95;;;14.80;99.90;;;;;;5036659;28;20045;-62
2022/06/06 02:29:41;;;;;;;23.17;18.13;;;14.80;99.90;;;;;;5029007;28;20049;-61
2022/06/06 02:32:08;;;;;;;21.20;15.25;;;14.60;99.90;;;;;;5037343;28;20051;-61
2022/06/06 02:34:35;;;;;;;18.83;14.95;;;14.90;99.90;;;;;;5039904;28;20514;-61
2022/06/06 02:37:01;;;;;;;26.23;17.55;;;14.50;99.90;;;;;;5027919;28;20306;-62
2022/06/06 02:39:27;;;;;;;22.80;15.77;;;14.50;99.90;;;;;;5018124;28;20044;-61
2022/06/06 02:41:53;;;;;;;24.75;18.42;;;14.60;99.90;;;;;;5036326;28;20041;-61
2022/06/06 02:44:19;;;;;;;25.58;16.58;;;14.30;99.90;;;;;;5017305;28;20115;-61
2022/06/06 02:46:45;;;;;;;25.88;17.50;;;14.20;99.90;;;;;;5035990;28;20331;-61
2022/06/06 02:49:11;;;;;;;20.33;14.27;;;14.20;99.90;;;;;;5035829;28;20434;-61
2022/06/06 02:51:36;;;;;;;15.88;12.20;;;14.20;99.90;;;;;;5031805;28;20487;-63
2022/06/06 02:54:03;;;;;;;18.60;13.52;;;14.20;99.90;;;;;;5035825;28;20187;-61
2022/06/06 02:56:28;;;;;;;17.73;12.90;;;14.30;99.90;;;;;;5031835;28;20537;-61
2022/06/06 02:58:55;;;;;;;20.08;12.52;;;14.10;99.90;;;;;;5038495;28;20506;-61
2022/06/06 03:01:21;;;;;;;16.88;11.57;;;14.00;99.90;;;;;;5045270;28;20413;-60
2022/06/06 03:03:47;;;;;;;14.15;10.85;;;14.20;99.90;;;;;;5031024;28;20037;-60
2022/06/06 03:06:34;;;;;;;19.45;11.57;;;14.20;99.90;;;;;;5037721;28;20049;-61
2022/06/06 03:09:03;;;;;;;21.08;12.20;;;13.80;99.90;;;;;;5035501;28;20041;-61
2022/06/06 03:11:35;;;;;;;20.67;12.35;;;13.80;99.90;;;;;;5033479;28;20658;-62
2022/06/06 03:14:10;;;;;;;15.32;12.43;;;13.80;99.90;;;;;;5034841;28;20581;-61
2022/06/06 03:23:16;;;;;;;16.60;10.73;;;13.80;99.90;;;;;;5042208;28;20625;-60
2022/06/06 03:26:08;;;;;;;15.45;9.80;;;14.00;99.90;;;;;;5037841;28;20813;-60
2022/06/06 03:28:45;;;;;;;12.20;8.43;;;13.70;99.90;;;;;;5037314;28;20495;-60
2022/06/06 03:31:19;;;;;;;12.57;8.65;;;14.00;99.90;;;;;;5032402;28;20036;-60
2022/06/06 03:33:54;;;;;;;13.35;10.45;;;13.80;99.90;;;;;;5037444;28;20053;-61
2022/06/06 03:36:34;;;;;;;16.73;11.85;;;13.70;99.90;;;;;;5037369;28;20079;-61
2022/06/06 03:39:19;;;;;;;15.90;11.25;;;13.70;99.90;;;;;;5045388;28;20039;-61
2022/06/06 03:41:55;;;;;;;21.13;13.70;;;13.80;99.90;;;;;;5041165;28;20041;-61
2022/06/06 03:44:33;;;;;;;13.63;11.05;;;13.90;99.90;;;;;;5034416;28;20049;-61
2022/06/06 03:47:46;;;;;;;20.27;14.57;;;13.70;99.90;;;;;;5031198;28;20048;-62
2022/06/06 03:50:42;;;;;;;15.40;12.33;;;13.60;99.90;;;;;;5026921;28;20052;-61
2022/06/06 03:53:20;;;;;;;15.00;12.60;;;13.80;99.90;;;;;;5030749;28;20065;-61
2022/06/06 03:56:13;;;;;;;13.73;11.88;;;13.90;99.90;;;;;;5038928;28;20110;-61
2022/06/06 03:58:40;;;;;;;20.40;15.40;;;13.90;99.90;;;;;;5032405;28;20086;-61
2022/06/06 04:01:09;;;;;;;15.98;12.32;;;13.80;99.90;;;;;;5035346;28;20287;-62
2022/06/06 04:03:37;;;;;;;16.02;12.07;;;13.70;99.90;;;;;;5034990;28;20522;-61
2022/06/06 04:06:04;;;;;;;17.02;13.45;;;13.50;99.90;;;;;;5036653;28;20476;-61
2022/06/06 04:08:32;;;;;;;15.23;12.27;;;13.80;99.90;;;;;;5045401;28;20036;-61
2022/06/06 04:11:15;;;;;;;;;;;13.60;99.90;;;;;;5039654;28;20045;-62
2022/06/06 04:14:06;;;;;;;17.20;13.27;;;13.80;99.90;;;;;;5035108;28;19928;-61
2022/06/06 04:16:46;;;;;;;17.63;14.40;;;13.70;99.90;;;;;;5035854;28;20067;-61
2022/06/06 04:19:29;;;;;;;18.40;15.32;;;13.90;99.90;;;;;;5044750;28;20045;-61
2022/06/06 04:22:33;;;;;;;17.60;14.85;;;13.70;99.90;;;;;;5041791;28;20045;-61
2022/06/06 04:25:36;;;;;;;23.52;15.75;;;13.80;99.90;;;;;;5034726;28;20041;-62
2022/06/06 04:28:07;;;;;;;16.33;13.07;;;13.80;99.90;;;;;;5038577;28;20364;-61
2022/06/06 04:31:01;;;;;;;16.20;13.85;;;13.90;99.90;;;;;;5039944;28;20049;-61
2022/06/06 04:33:32;;;;;;;;;;;13.70;99.90;;;;;;5035776;28;20033;-61
2022/06/06 04:35:58;;;;;;;16.88;12.73;;;13.60;99.90;;;;;;5044308;28;19987;-61
2022/06/06 04:38:30;;;;;;;15.27;11.77;;;13.60;99.90;;;;;;5041289;28;20128;-61
2022/06/06 04:41:03;;;;;;;19.85;13.63;;;13.70;99.90;;;;;;5043529;28;20049;-62
2022/06/06 04:43:55;;;;;;;13.68;10.15;;;13.90;99.90;;;;;;5039358;28;20369;-61
2022/06/06 04:46:48;;;;;;;14.90;11.40;;;13.90;99.90;;;;;;5032146;28;20041;-61
2022/06/06 04:49:14;;;;;;;15.60;11.03;;;13.90;99.90;;;;;;5034542;28;20109;-61
2022/06/06 04:51:45;;;;;;;16.08;11.18;;;13.90;99.90;;;;;;5042772;28;20293;-61
2022/06/06 04:54:16;;;;;;;15.73;10.98;;;13.60;99.90;;;;;;5047829;28;20049;-61
2022/06/06 04:56:44;;;;;;;17.58;12.15;;;14.00;99.90;;;;;;5045798;28;20040;-61
2022/06/06 04:59:11;;;;;;;14.02;10.98;;;13.70;99.90;;;;;;5044888;28;20033;-61
2022/06/06 05:01:39;;;;;;;13.13;11.00;;;14.00;99.90;;;;;;5042535;28;20077;-61
2022/06/06 05:04:05;;;;;;;12.40;10.98;;;13.80;99.90;;;;;;5039857;28;20075;-61
2022/06/06 05:06:56;;;;;;;12.40;11.10;;;14.00;99.90;;;;;;5037741;28;20033;-61
2022/06/06 05:09:31;;;;;;;12.15;10.43;;;14.10;99.90;;;;;;5036663;28;20044;-61
2022/06/06 05:12:08;;;;;;;13.23;10.80;;;14.00;99.90;;;;;;5039555;28;20077;-61
2022/06/06 05:14:48;;;;;;;11.43;10.23;;;13.70;99.90;;;;;;5045888;28;20041;-61
2022/06/06 05:17:31;;;;;;;13.40;10.70;;;13.70;99.90;;;;;;5023892;28;20099;-62
2022/06/06 05:20:29;;;;;;;10.90;9.60;;;14.10;99.90;;;;;;5039449;28;20068;-61
2022/06/06 05:23:18;;;;;;;10.48;7.90;;;14.00;99.90;;;;;;5037231;28;20558;-61
2022/06/06 05:26:11;;;;;;;9.23;7.63;;;13.70;99.90;;;;;;5044880;28;20823;-61
2022/06/06 05:28:37;;;;;;;9.55;8.57;;;14.00;99.90;;;;;;5041007;28;20505;-61
2022/06/06 05:31:08;;;;;;;9.63;8.05;;;14.00;99.90;;;;;;5040952;28;20099;-61
2022/06/06 05:34:20;;;;;;;7.75;6.82;;;14.00;99.90;;;;;;5041496;28;20041;-61
2022/06/06 05:37:23;;;;;;;5.70;4.72;;;13.90;99.90;;;;;;5036147;28;20053;-61
2022/06/06 05:40:07;;;;;;;5.18;4.30;;;13.70;99.90;;;;;;5028257;28;20211;-60
2022/06/06 05:43:13;;;;;;;4.55;4.07;;;13.70;99.90;;;;;;5042437;28;20037;-60
2022/06/06 05:45:39;;;;;;;5.00;2.83;;;13.70;99.90;;;;;;5021874;28;20383;-60
2022/06/06 05:48:29;;;;;;;5.13;3.30;;;13.90;99.90;;;;;;5038794;28;20094;-61
2022/06/06 05:50:59;;;;;;;4.53;3.85;;;13.90;99.90;;;;;;5014494;28;20129;-61
2022/06/06 05:53:37;;;;;;;8.90;5.13;;;13.60;99.90;;;;;;5036851;28;20075;-61
2022/06/06 05:56:15;;;;;;;5.97;3.03;;;13.60;99.90;;;;;;5035023;28;20052;-61
2022/06/06 05:58:53;;;;;;;6.13;5.07;;;13.90;99.90;;;;;;5044631;28;20077;-61
2022/06/06 06:01:43;;;;;;;7.97;5.55;;;13.80;99.90;;;;;;5022067;28;20393;-61
2022/06/06 06:04:34;;;;;;;9.52;5.47;;;13.90;99.90;;;;;;5028463;28;20075;-60
2022/06/06 06:07:25;;;;;;;8.00;5.55;;;13.90;99.90;;;;;;5038187;28;20043;-59
2022/06/06 06:10:03;;;;;;;8.18;5.80;;;13.80;99.90;;;;;;5033659;28;20464;-59
2022/06/06 06:12:53;;;;;;;9.98;6.13;;;13.80;99.90;;;;;;5034461;28;20045;-60
2022/06/06 06:15:38;;;;;;;10.32;7.35;;;13.40;99.90;;;;;;5038264;28;20056;-60
2022/06/06 06:18:15;;;;;;;13.07;7.43;;;13.40;99.90;;;;;;5037301;28;20064;-59
2022/06/06 06:20:46;;;;;;;9.85;6.38;;;13.40;99.90;;;;;;5058923;28;20537;-59
2022/06/06 06:23:20;;;;;;;10.77;6.10;;;13.30;99.90;;;;;;5029656;28;20045;-60
2022/06/06 06:25:46;;;;;;;;;;;13.40;99.90;;;;;;5038955;28;20583;-60
2022/06/06 06:28:13;;;;;;;11.23;6.55;;;13.50;99.90;;;;;;5041221;28;19962;-60
2022/06/06 06:30:47;;;;;;;11.35;6.85;;;13.40;99.90;;;;;;5017166;28;20183;-60
2022/06/06 06:33:19;;;;;;;8.63;5.60;;;13.50;99.90;;;;;;5030359;28;20038;-61
2022/06/06 06:36:06;;;;;;;11.23;5.82;;;13.80;99.90;;;;;;5039956;28;20041;-60
2022/06/06 06:38:32;;;;;;;9.38;6.03;;;13.40;99.90;;;;;;5035762;28;20079;-60
2022/06/06 06:41:23;;;;;;;10.25;5.93;;;13.40;99.90;;;;;;5038406;28;20077;-60
2022/06/06 06:44:30;;;;;;;8.00;5.82;;;13.40;99.90;;;;;;5038298;28;20041;-61
2022/06/06 06:46:58;;;;;;;10.15;6.18;;;13.40;99.90;;;;;;5011220;28;20060;-61
2022/06/06 06:49:41;;;;;;;12.35;6.57;;;13.30;99.90;;;;;;5033915;28;20048;-61
2022/06/06 06:52:13;;;;;;;10.38;7.32;;;13.40;99.90;;;;;;5039197;28;20041;-62
2022/06/06 06:54:44;;;;;;;12.85;7.53;;;13.40;99.90;;;;;;5037708;28;20124;-61
2022/06/06 06:57:36;;;;;;;12.68;7.88;;;13.40;99.90;;;;;;5028507;28;20037;-61
2022/06/06 07:00:55;;;;;;;12.30;7.85;;;13.50;99.90;;;;;;5033529;28;20041;-61
2022/06/06 07:09:19;;;;;;;7.68;5.88;;;13.30;99.90;;;;;;5036264;28;20612;-60
2022/06/06 07:11:57;;;;;;;7.68;5.78;;;13.40;99.90;;;;;;5037765;28;20071;-60
2022/06/06 07:14:35;;;;;;;7.03;5.22;;;13.40;99.90;;;;;;5039019;28;20041;-59
2022/06/06 07:17:02;;;;;;;6.13;4.68;;;13.60;99.90;;;;;;5041624;28;20057;-61
2022/06/06 07:20:00;;;;;;;5.40;3.95;;;13.70;99.90;;;;;;5047566;28;20506;-61
2022/06/06 07:22:59;;;;;;;5.18;3.40;;;13.60;99.90;;;;;;5034987;28;20060;-61
2022/06/06 07:25:16;;;;;;;5.10;2.30;;;14.00;99.90;;;;;;5048523;28;20518;-62
2022/06/06 07:27:42;;;;;;;7.93;2.75;;;13.90;99.90;;;;;;5040786;28;20430;-61
2022/06/06 07:30:08;;;;;;;4.75;2.28;;;14.10;99.90;;;;;;5015535;28;20037;-61
2022/06/06 07:32:46;;;;;;;4.88;2.65;;;14.10;99.90;;;;;;5015160;28;20085;-61
2022/06/06 07:35:26;;;;;;;2.78;1.85;;;14.30;99.90;;;;;;5039687;28;20071;-61
2022/06/06 07:37:58;;;;;;;6.35;2.25;;;14.60;99.90;;;;;;5034546;28;20049;-61
2022/06/06 07:40:45;;;;;;;4.30;2.70;;;14.80;99.90;;;;;;5032699;28;20406;-62
2022/06/06 07:43:29;;;;;;;3.88;1.83;;;14.80;99.90;;;;;;5028363;28;20053;-61
2022/06/06 07:46:21;;;;;;;3.60;2.05;;;14.70;99.90;;;;;;5039933;28;20041;-62
2022/06/06 07:48:58;;;;;;;5.15;2.38;;;14.70;99.90;;;;;;5037680;28;20175;-62
2022/06/06 07:51:43;;;;;;;3.17;2.00;;;14.70;99.90;;;;;;5053566;28;20051;-61
2022/06/06 07:54:18;;;;;;;2.85;1.60;;;14.80;99.90;;;;;;5035368;28;20498;-61
2022/06/06 07:56:57;;;;;;;4.05;1.52;;;14.80;99.90;;;;;;5038033;28;20044;-62
2022/06/06 07:59:22;;;;;;;5.55;1.85;;;15.00;99.90;;;;;;5018546;28;20392;-61
2022/06/06 08:02:25;;;;;;;4.20;1.95;;;15.20;99.90;;;;;;5035899;28;20032;-62
2022/06/06 08:05:06;;;;;;;3.35;1.65;;;15.30;99.90;;;;;;5037859;28;20049;-60
2022/06/06 08:07:48;;;;;;;3.15;1.67;;;15.50;99.90;;;;;;5045071;28;20707;-61
2022/06/06 08:10:30;;;;;;;3.58;1.92;;;15.30;99.90;;;;;;5032854;28;20092;-61
2022/06/06 08:13:27;;;;;;;2.75;1.50;;;15.20;99.90;;;;;;5037529;28;20047;-61
2022/06/06 08:16:20;;;;;;;6.47;2.42;;;15.40;99.90;;;;;;5034268;28;20081;-61
2022/06/06 08:19:12;;;;;;;5.85;1.55;;;15.70;99.90;;;;;;5033532;28;20231;-61
2022/06/06 08:21:39;;;;;;;2.70;1.10;;;15.90;99.90;;;;;;5034502;28;20092;-61
2022/06/06 08:24:09;;;;;;;2.78;0.90;;;16.30;99.90;;;;;;5044481;28;20037;-62
2022/06/06 08:26:38;;;;;;;1.45;1.10;;;16.40;99.90;;;;;;5035149;28;20029;-61
2022/06/06 08:29:06;;;;;;;1.90;0.90;;;16.50;99.90;;;;;;5037886;28;20110;-61
2022/06/06 08:31:32;;;;;;;3.92;1.20;;;16.40;99.90;;;;;;5034802;28;20459;-61
2022/06/06 08:33:58;;;;;;;3.47;1.30;;;16.10;99.90;;;;;;5037627;28;20116;-61
2022/06/06 08:36:38;;;;;;;3.45;1.45;;;15.90;99.90;;;;;;5033107;28;20050;-61
2022/06/06 08:39:17;;;;;;;3.70;1.63;;;16.20;99.90;;;;;;5034887;28;20052;-62
2022/06/06 08:42:37;;;;;;;5.55;1.95;;;16.30;99.90;;;;;;5037625;28;20033;-62
2022/06/06 08:45:09;;;;;;;3.38;1.92;;;16.30;99.90;;;;;;4967217;28;20046;-61
2022/06/06 08:48:05;;;;;;;4.60;2.33;;;16.80;99.90;;;;;;5038955;28;20055;-62
2022/06/06 08:50:59;;;;;;;4.18;1.73;;;17.00;99.90;;;;;;5033464;28;20120;-61
2022/06/06 08:53:30;;;;;;;4.13;2.03;;;17.00;99.90;;;;;;5030126;28;20037;-61
2022/06/06 08:56:17;;;;;;;4.60;2.03;;;17.20;99.90;;;;;;5038174;28;20044;-61
2022/06/06 08:59:31;;;;;;;3.90;2.10;;;17.10;99.90;;;;;;5029544;28;20036;-61
2022/06/06 09:02:15;;;;;;;5.03;2.03;;;17.20;99.90;;;;;;4998113;28;20526;-61
2022/06/06 09:04:50;;;;;;;4.15;1.90;;;17.70;99.90;;;;;;5043693;28;20057;-61
2022/06/06 09:07:27;;;;;;;2.85;1.80;;;17.80;99.90;;;;;;5044069;28;20045;-61
2022/06/06 09:10:33;;;;;;;3.65;1.95;;;17.60;99.90;;;;;;5044501;28;20614;-61
2022/06/06 09:13:11;;;;;;;4.20;2.08;;;17.40;99.90;;;;;;5044124;28;20103;-61
2022/06/06 09:16:05;;;;;;;6.85;2.70;;;17.20;99.90;;;;;;5026901;28;20144;-61
2022/06/06 09:19:04;;;;;;;4.63;2.10;;;17.20;99.90;;;;;;5028768;28;20115;-61
2022/06/06 09:21:30;;;;;;;4.32;2.47;;;17.40;99.90;;;;;;5044210;28;20075;-61
2022/06/06 09:24:04;;;;;;;2.75;2.03;;;17.40;99.90;;;;;;5028676;28;20496;-61
2022/06/06 09:26:49;;;;;;;4.38;2.30;;;17.40;99.90;;;;;;5027202;28;20563;-61
2022/06/06 09:29:57;;;;;;;4.22;2.15;;;17.30;99.90;;;;;;5027477;28;20045;-61
2022/06/06 09:32:40;;;;;;;4.68;2.08;;;17.40;99.90;;;;;;5044430;28;20403;-61
2022/06/06 09:35:44;;;;;;;3.38;1.70;;;17.40;99.90;;;;;;5030319;28;20044;-61
2022/06/06 09:38:15;;;;;;;;;;;17.80;99.90;;;;;;5019270;28;20111;-61
2022/06/06 09:41:18;;;;;;;4.28;2.17;;;17.50;99.90;;;;;;5031081;28;19925;-61
2022/06/06 09:43:46;;;;;;;6.25;2.47;;;17.20;99.90;;;;;;5030833;28;20397;-62
2022/06/06 09:46:26;;;;;;;4.10;1.38;;;17.00;99.90;;;;;;5031038;28;20370;-62
2022/06/06 09:49:18;;;;;;;6.38;1.60;;;17.30;99.90;;;;;;5014485;28;20046;-60
2022/06/06 09:52:02;;;;;;;3.73;1.40;;;17.40;99.90;;;;;;5047676;28;20080;-61
2022/06/06 10:01:35;;;;;;;4.60;1.65;;;16.70;99.90;;;;;;5047318;28;20057;-61
2022/06/06 10:04:10;;;;;;;3.77;1.37;;;17.10;99.90;;;;;;5030773;28;20053;-61
2022/06/06 10:06:49;;;;;;;4.07;0.90;;;17.70;99.90;;;;;;5047287;28;20405;-61
2022/06/06 10:09:38;;;;;;;1.60;0.60;;;18.30;99.90;;;;;;5047499;28;20056;-61
2022/06/06 10:12:41;;;;;;;2.42;0.50;;;19.00;99.90;;;;;;5031886;28;20037;-61
2022/06/06 10:15:10;;;;;;;4.60;0.57;;;19.50;99.90;;;;;;5030547;28;20120;-61
2022/06/06 10:17:42;;;;;;;3.28;0.40;;;19.70;99.90;;;;;;5046647;28;20103;-61
2022/06/06 10:20:16;;;;;;;1.80;0.50;;;19.70;99.90;;;;;;5031740;28;20356;-62
2022/06/06 10:23:12;;;;;;;3.38;0.60;;;19.50;99.90;;;;;;5046932;28;20054;-62
2022/06/06 10:25:56;;;;;;;3.63;0.60;;;19.20;99.90;;;;;;5013746;28;20037;-62
2022/06/06 10:28:43;;;;;;;3.03;0.60;;;18.70;99.90;;;;;;5030252;28;20041;-62
2022/06/06 10:31:35;;;;;;;1.67;0.50;;;18.30;99.90;;;;;;5047052;28;20388;-61
2022/06/06 10:34:14;;;;;;;3.20;0.65;;;18.60;99.90;;;;;;5046942;28;20369;-59
2022/06/06 10:36:52;;;;;;;3.40;0.63;;;19.00;99.90;;;;;;5031537;28;20049;-60
2022/06/06 10:39:43;;;;;;;3.40;0.30;;;19.30;99.90;;;;;;5013773;28;20057;-60
2022/06/06 10:42:23;;;;;;;2.72;0.30;;;19.70;99.90;;;;;;5046397;28;20396;-61
2022/06/06 10:45:11;;;;;;;5.70;0.57;;;20.10;99.90;;;;;;5030127;28;20132;-62
2022/06/06 10:48:07;;;;;;;4.78;0.50;;;20.60;99.90;;;;;;5030989;28;20099;-60
2022/06/06 10:53:58;;;;;;;1.75;0.28;;;21.00;99.90;;;;;;5046077;28;20049;-61
2022/06/06 10:56:54;;;;;;;3.80;0.40;;;20.70;99.90;;;;;;5029236;28;20049;-61
2022/06/06 10:59:32;;;;;;;1.00;0.20;;;20.90;99.90;;;;;;5030962;28;20045;-61
2022/06/06 11:02:28;;;;;;;3.63;0.20;;;21.20;99.90;;;;;;5045829;28;20052;-61
2022/06/06 11:05:11;;;;;;;2.38;0.30;;;21.40;99.90;;;;;;5030841;28;20128;-60
2022/06/06 11:08:14;;;;;;;3.65;0.40;;;21.10;99.90;;;;;;5012649;28;20171;-61
2022/06/06 11:10:46;;;;;;;;;;;20.70;99.90;;;;;;5029934;28;20052;-61
2022/06/06 11:13:21;;;;;;;3.53;0.40;;;20.30;99.90;;;;;;5031525;28;19963;-61
2022/06/06 11:16:26;;;;;;;2.08;0.20;;;20.80;99.90;;;;;;5042610;28;20041;-61
2022/06/06 11:19:29;;;;;;;1.95;0.25;;;20.80;99.90;;;;;;5041378;28;20128;-62
2022/06/06 11:21:58;;;;;;;;;;;20.50;99.90;;;;;;5033235;28;20038;-61
2022/06/06 11:24:47;;;;;;;1.60;0.25;;;20.40;99.90;;;;;;5030929;28;19917;-61
2022/06/06 11:27:22;;;;;;;1.17;0.22;;;21.20;99.90;;;;;;5041285;28;20076;-61
2022/06/06 11:30:17;;;;;;;3.20;0.40;;;21.10;99.90;;;;;;5033687;28;20107;-62
2022/06/06 11:33:20;;;;;;;4.05;0.28;;;21.10;99.90;;;;;;5047131;28;20116;-63
2022/06/06 11:36:20;;;;;;;5.00;0.45;;;21.40;99.90;;;;;;5042976;28;20055;-62
2022/06/06 11:39:04;;;;;;;2.97;0.63;;;21.50;99.90;;;;;;5045544;28;20041;-63
2022/06/06 11:41:54;;;;;;;3.40;0.30;;;21.10;99.90;;;;;;5031702;28;20037;-62
2022/06/06 11:44:42;;;;;;;2.50;0.30;;;20.60;99.90;;;;;;5017792;28;20522;-63
2022/06/06 11:47:33;;;;;;;4.20;0.50;;;19.70;99.90;;;;;;5027387;28;20364;-63
2022/06/06 11:50:11;;;;;;;2.53;0.30;;;18.90;99.90;;;;;;5026924;28;20214;-63
2022/06/06 11:53:06;;;;;;;3.83;0.43;;;18.30;99.90;;;;;;5035049;28;20052;-61
2022/06/06 11:56:03;;;;;;;3.10;0.30;;;18.60;99.90;;;;;;5017630;28;20105;-62
2022/06/06 11:59:13;;;;;;;2.53;0.30;;;19.30;99.90;;;;;;5035485;28;20351;-63
2022/06/06 12:02:14;;;;;;;2.80;0.20;;;19.20;99.90;;;;;;5018913;28;20116;-63
2022/06/06 12:05:09;;;;;;;1.20;0.20;;;19.10;99.90;;;;;;5034879;28;20079;-62
2022/06/06 12:07:59;;;;;;;2.88;0.30;;;19.10;99.90;;;;;;5034652;28;20082;-62
2022/06/06 12:10:38;;;;;;;2.35;0.20;;;19.40;99.90;;;;;;5033783;28;20051;-62
2022/06/06 12:13:24;;;;;;;1.00;0.30;;;19.50;99.90;;;;;;5043582;28;20434;-61
2022/06/06 12:15:55;;;;;;;3.92;0.30;;;20.00;99.90;;;;;;5036381;28;20048;-61
2022/06/06 12:18:58;;;;;;;2.00;0.30;;;19.40;99.90;;;;;;5025482;28;20159;-62
2022/06/06 12:21:42;;;;;;;2.83;0.30;;;19.10;99.90;;;;;;5035734;28;20049;-62
2022/06/06 12:24:20;;;;;;;1.98;0.30;;;19.10;99.90;;;;;;5031596;28;20041;-63
2022/06/06 12:27:07;;;;;;;2.45;0.38;;;19.40;99.90;;;;;;5042838;28;20075;-62
2022/06/06 12:29:57;;;;;;;2.22;0.30;;;20.00;99.90;;;;;;5028783;28;20091;-61
2022/06/06 12:32:51;;;;;;;2.40;0.32;;;20.20;99.90;;;;;;5046676;28;20051;-61
2022/06/06 12:35:31;;;;;;;3.17;0.40;;;20.60;99.90;;;;;;5048519;28;20041;-61
2022/06/06 12:38:00;;;;;;;3.00;0.20;;;20.20;99.90;;;;;;5048100;28;20395;-61
2022/06/06 12:41:03;;;;;;;3.63;0.25;;;20.20;99.90;;;;;;5047884;28;20179;-62
2022/06/06 12:44:22;;;;;;;5.20;0.30;;;19.90;99.90;;;;;;5047075;28;20056;-62
2022/06/06 12:46:59;;;;;;;4.13;0.30;;;19.80;99.90;;;;;;4970886;28;20042;-61
2022/06/06 12:50:00;;;;;;;2.53;0.30;;;19.90;99.90;;;;;;4970615;28;20041;-61
2022/06/06 12:53:02;;;;;;;1.65;0.30;;;19.70;99.90;;;;;;5030459;28;20395;-61
2022/06/06 12:55:54;;;;;;;2.42;0.30;;;19.80;99.90;;;;;;5048741;28;20045;-60
2022/06/06 12:58:29;;;;;;;2.08;0.40;;;19.50;99.90;;;;;;5032912;28;20053;-60
2022/06/06 13:04:33;;;;;;;2.20;0.30;;;19.20;99.90;;;;;;5048887;28;20056;-60
2022/06/06 13:07:20;;;;;;;3.53;0.30;;;18.80;99.90;;;;;;5047886;28;20049;-61
2022/06/06 13:10:16;;;;;;;3.45;0.20;;;18.80;99.90;;;;;;5049816;28;20052;-61
2022/06/06 13:13:05;;;;;;;2.45;0.30;;;18.40;99.90;;;;;;5051259;28;20487;-61
2022/06/06 13:15:41;;;;;;;2.67;0.43;;;18.20;99.90;;;;;;5050970;28;20542;-62
2022/06/06 13:18:22;;;;;;;3.42;0.20;;;18.00;99.90;;;;;;5051475;28;20134;-61
2022/06/06 13:21:06;;;;;;;2.65;0.20;;;17.90;99.90;;;;;;5051313;28;20044;-62
2022/06/06 13:23:56;;;;;;;1.13;0.25;;;17.70;99.90;;;;;;5034690;28;20041;-62
2022/06/06 13:26:48;;;;;;;4.57;0.35;;;17.40;99.90;;;;;;5051271;28;20045;-61
2022/06/06 13:29:35;;;;;;;2.67;0.20;;;17.40;99.90;;;;;;5053013;28;20051;-61
2022/06/06 13:32:20;;;;;;;2.17;0.30;;;17.60;99.90;;;;;;5051292;28;20041;-61
2022/06/06 13:35:16;;;;;;;2.33;0.30;;;17.40;99.90;;;;;;5051221;28;20041;-61
2022/06/06 13:38:06;;;;;;;3.70;0.30;;;17.00;99.90;;;;;;5051414;28;20056;-61
2022/06/06 13:40:41;;;;;;;4.40;0.40;;;16.60;99.90;;;;;;5050999;28;20063;-61
2022/06/06 13:43:19;;;;;;;3.97;0.38;;;16.10;99.90;;;;;;5050719;28;20060;-61
2022/06/06 13:45:55;;;;;;;2.63;0.50;;;16.00;99.90;;;;;;5051048;28;20391;-61
2022/06/06 13:48:36;;;;;;;2.97;0.73;;;15.90;99.90;;;;;;5052514;28;20041;-60
2022/06/06 13:51:40;;;;;;;4.03;0.40;;;16.10;99.90;;;;;;5051061;28;20483;-60
2022/06/06 13:54:07;;;;;;;;;;;16.30;99.90;;;;;;4974647;28;20100;-60
2022/06/06 13:56:41;;;;;;;1.77;0.50;;;16.30;99.90;;;;;;4973860;28;19964;-60
2022/06/06 13:59:38;;;;;;;1.88;0.50;;;16.30;99.90;;;;;;5013182;28;20081;-60
2022/06/06 14:02:31;;;;;;;1.88;0.50;;;16.30;99.90;;;;;;5050382;28;20499;-60
2022/06/06 14:05:23;;;;;;;4.00;0.70;;;16.10;99.90;;;;;;5052030;28;20044;-61
2022/06/06 14:07:51;;;;;;;4.13;0.70;;;16.00;99.90;;;;;;5028731;28;20049;-61
2022/06/06 14:10:19;;;;;;;4.15;1.10;;;15.80;99.90;;;;;;5050648;28;20372;-61
2022/06/06 14:13:11;;;;;;;3.60;1.13;;;15.70;99.90;;;;;;5033684;28;20056;-60
2022/06/06 14:15:43;;;;;;;3.58;1.45;;;15.40;99.90;;;;;;5051379;28;20045;-61